createdAt,value
2018-12-12T00:00:33.194Z,1014.18
2018-12-12T00:01:33.167Z,1014.28
2018-12-12T00:02:33.176Z,1014.36
2018-12-12T00:03:33.168Z,1014.34
2018-12-12T00:04:33.155Z,1014.33
2018-12-12T00:05:33.125Z,1014.31
2018-12-12T00:06:33.128Z,1014.34
2018-12-12T00:07:33.101Z,1014.26
2018-12-12T00:08:33.137Z,1014.16
2018-12-12T00:09:33.086Z,1014.22
2018-12-12T00:10:33.085Z,1014.29
2018-12-12T00:11:33.066Z,1014.25
2018-12-12T00:12:33.072Z,1014.16
2018-12-12T00:13:33.060Z,1014.18
2018-12-12T00:14:33.026Z,1014.25
2018-12-12T00:15:33.024Z,1014.15
2018-12-12T00:16:33.002Z,1014.15
2018-12-12T00:17:32.997Z,1014.28
2018-12-12T00:18:33.012Z,1014.11
2018-12-12T00:19:32.992Z,1014.16
2018-12-12T00:20:32.964Z,1014.29
2018-12-12T00:21:32.962Z,1014.28
2018-12-12T00:22:32.944Z,1014.25
2018-12-12T00:23:32.978Z,1014.31
2018-12-12T00:24:32.932Z,1014.32
2018-12-12T00:25:32.927Z,1014.21
2018-12-12T00:26:32.914Z,1014.19
2018-12-12T00:27:32.898Z,1014.26
2018-12-12T00:28:32.903Z,1014.23
2018-12-12T00:29:32.859Z,1014.18
2018-12-12T00:30:32.854Z,1014.31
2018-12-12T00:31:32.867Z,1014.24
2018-12-12T00:32:32.837Z,1014.25
2018-12-12T00:33:32.842Z,1014.29
2018-12-12T00:34:32.814Z,1014.24
2018-12-12T00:35:32.812Z,1014.25
2018-12-12T00:36:32.804Z,1014.24
2018-12-12T00:37:32.784Z,1014.24
2018-12-12T00:38:32.782Z,1014.32
2018-12-12T00:39:32.783Z,1014.43
2018-12-12T00:40:32.748Z,1014.25
2018-12-12T00:41:32.757Z,1014.33
2018-12-12T00:42:32.728Z,1014.38
2018-12-12T00:43:32.789Z,1014.28
2018-12-12T00:44:32.715Z,1014.36
2018-12-12T00:45:32.696Z,1014.35
2018-12-12T00:46:32.684Z,1014.35
2018-12-12T00:47:32.672Z,1014.40
2018-12-12T00:48:32.691Z,1014.30
2018-12-12T00:49:32.645Z,1014.31
2018-12-12T00:50:32.659Z,1014.34
2018-12-12T00:51:32.627Z,1014.36
2018-12-12T00:52:32.619Z,1014.41
2018-12-12T00:53:32.649Z,1014.39
2018-12-12T00:54:32.601Z,1014.42
2018-12-12T00:55:32.581Z,1014.53
2018-12-12T00:56:32.578Z,1014.44
2018-12-12T00:57:32.583Z,1014.41
2018-12-12T00:58:32.601Z,1014.48
2018-12-12T00:59:32.535Z,1014.49
2018-12-12T01:00:32.531Z,1014.41
2018-12-12T01:01:32.519Z,1014.44
2018-12-12T01:02:32.506Z,1014.43
2018-12-12T01:03:32.505Z,1014.46
2018-12-12T01:04:32.507Z,1014.44
2018-12-12T01:05:32.473Z,1014.37
2018-12-12T01:06:32.470Z,1014.54
2018-12-12T01:07:32.451Z,1014.57
2018-12-12T01:08:32.483Z,1014.48
2018-12-12T01:09:32.445Z,1014.48
2018-12-12T01:10:32.438Z,1014.57
2018-12-12T01:11:32.401Z,1014.50
2018-12-12T01:12:32.404Z,1014.49
2018-12-12T01:13:32.382Z,1014.56
2018-12-12T01:14:32.399Z,1014.66
2018-12-12T01:15:32.371Z,1014.57
2018-12-12T01:16:32.372Z,1014.62
2018-12-12T01:17:32.345Z,1014.62
2018-12-12T01:18:32.351Z,1014.61
2018-12-12T01:19:32.368Z,1014.61
2018-12-12T01:20:32.324Z,1014.65
2018-12-12T01:21:32.299Z,1014.72
2018-12-12T01:22:32.282Z,1014.73
2018-12-12T01:23:32.279Z,1014.62
2018-12-12T01:24:32.296Z,1014.68
2018-12-12T01:25:32.255Z,1014.67
2018-12-12T01:26:32.245Z,1014.73
2018-12-12T01:27:32.237Z,1014.81
2018-12-12T01:28:32.225Z,1014.72
2018-12-12T01:29:32.227Z,1014.70
2018-12-12T01:30:32.209Z,1014.72
2018-12-12T01:31:32.194Z,1014.68
2018-12-12T01:32:32.192Z,1014.71
2018-12-12T01:33:32.179Z,1014.89
2018-12-12T01:34:32.195Z,1014.81
2018-12-12T01:35:32.167Z,1014.79
2018-12-12T01:36:32.138Z,1014.76
2018-12-12T01:37:32.287Z,1014.86
2018-12-12T01:38:32.121Z,1014.84
2018-12-12T01:39:32.124Z,1014.84
2018-12-12T01:40:32.094Z,1014.88
2018-12-12T01:41:32.074Z,1014.82
2018-12-12T01:42:32.078Z,1014.81
2018-12-12T01:43:32.054Z,1014.83
2018-12-12T01:44:32.126Z,1014.79
2018-12-12T01:45:32.046Z,1014.83
2018-12-12T01:46:32.032Z,1014.82
2018-12-12T01:47:32.016Z,1014.81
2018-12-12T01:48:32.004Z,1014.83
2018-12-12T01:49:32.001Z,1014.79
2018-12-12T01:50:32.000Z,1014.81
2018-12-12T01:51:31.983Z,1014.85
2018-12-12T01:52:31.964Z,1014.75
2018-12-12T01:53:33.102Z,1014.78
2018-12-12T01:54:31.936Z,1014.89
2018-12-12T01:55:31.946Z,1014.78
2018-12-12T01:56:31.917Z,1014.99
2018-12-12T01:57:31.919Z,1014.90
2018-12-12T01:58:31.898Z,1014.90
2018-12-12T01:59:31.888Z,1014.90
2018-12-12T02:00:31.889Z,1014.92
2018-12-12T02:01:31.884Z,1014.86
2018-12-12T02:02:31.852Z,1014.89
2018-12-12T02:03:31.848Z,1014.95
2018-12-12T02:04:31.831Z,1014.81
2018-12-12T02:05:31.848Z,1014.89
2018-12-12T02:06:31.804Z,1014.83
2018-12-12T02:07:31.830Z,1014.90
2018-12-12T02:08:31.804Z,1014.99
2018-12-12T02:09:31.803Z,1014.97
2018-12-12T02:10:31.802Z,1014.91
2018-12-12T02:11:31.758Z,1014.96
2018-12-12T02:12:31.740Z,1015.08
2018-12-12T02:13:31.745Z,1014.99
2018-12-12T02:14:31.742Z,1015.07
2018-12-12T02:15:31.728Z,1014.98
2018-12-12T02:16:31.705Z,1014.98
2018-12-12T02:17:31.688Z,1015.05
2018-12-12T02:18:31.682Z,1014.99
2018-12-12T02:19:31.678Z,1014.99
2018-12-12T02:20:31.670Z,1015.01
2018-12-12T02:21:31.645Z,1015.09
2018-12-12T02:22:31.636Z,1015.04
2018-12-12T02:23:31.622Z,1015.01
2018-12-12T02:24:31.616Z,1015.07
2018-12-12T02:25:31.617Z,1015.14
2018-12-12T02:26:31.595Z,1015.13
2018-12-12T02:27:31.572Z,1015.22
2018-12-12T02:28:31.567Z,1015.22
2018-12-12T02:29:31.568Z,1015.16
2018-12-12T02:30:31.580Z,1015.19
2018-12-12T02:31:31.539Z,1015.17
2018-12-12T02:32:31.522Z,1015.17
2018-12-12T02:33:31.515Z,1015.23
2018-12-12T02:34:31.545Z,1015.20
2018-12-12T02:35:31.503Z,1015.27
2018-12-12T02:36:31.496Z,1015.26
2018-12-12T02:37:31.477Z,1015.26
2018-12-12T02:38:31.459Z,1015.19
2018-12-12T02:39:31.444Z,1015.28
2018-12-12T02:40:31.435Z,1015.26
2018-12-12T02:41:31.457Z,1015.31
2018-12-12T02:42:31.423Z,1015.29
2018-12-12T02:43:31.419Z,1015.29
2018-12-12T02:44:31.391Z,1015.30
2018-12-12T02:45:31.383Z,1015.29
2018-12-12T02:46:31.401Z,1015.36
2018-12-12T02:47:31.365Z,1015.42
2018-12-12T02:48:31.351Z,1015.45
2018-12-12T02:49:32.347Z,1015.44
2018-12-12T02:50:31.339Z,1015.28
2018-12-12T02:51:31.325Z,1015.39
2018-12-12T02:52:31.321Z,1015.43
2018-12-12T02:53:31.293Z,1015.41
2018-12-12T02:54:31.286Z,1015.39
2018-12-12T02:55:31.308Z,1015.40
2018-12-12T02:56:31.264Z,1015.40
2018-12-12T02:57:31.280Z,1015.43
2018-12-12T02:58:31.250Z,1015.44
2018-12-12T02:59:31.238Z,1015.46
2018-12-12T03:00:31.230Z,1015.59
2018-12-12T03:01:31.201Z,1015.46
2018-12-12T03:02:31.221Z,1015.54
2018-12-12T03:03:31.194Z,1015.57
2018-12-12T03:04:31.184Z,1015.54
2018-12-12T03:05:31.170Z,1015.48
2018-12-12T03:06:31.161Z,1015.47
2018-12-12T03:07:31.164Z,1015.60
2018-12-12T03:08:31.127Z,1015.54
2018-12-12T03:09:31.112Z,1015.39
2018-12-12T03:10:31.108Z,1015.47
2018-12-12T03:11:31.106Z,1015.42
2018-12-12T03:12:31.103Z,1015.61
2018-12-12T03:13:31.075Z,1015.62
2018-12-12T03:14:31.080Z,1015.57
2018-12-12T03:15:31.050Z,1015.59
2018-12-12T03:16:31.050Z,1015.64
2018-12-12T03:17:31.085Z,1015.59
2018-12-12T03:18:31.032Z,1015.46
2018-12-12T03:19:31.012Z,1015.59
2018-12-12T03:20:31.025Z,1015.61
2018-12-12T03:21:30.989Z,1015.52
2018-12-12T03:22:30.993Z,1015.59
2018-12-12T03:23:30.970Z,1015.58
2018-12-12T03:24:30.954Z,1015.61
2018-12-12T03:25:30.952Z,1015.61
2018-12-12T03:26:31.007Z,1015.60
2018-12-12T03:27:30.978Z,1015.71
2018-12-12T03:28:30.928Z,1015.79
2018-12-12T03:29:30.899Z,1015.67
2018-12-12T03:30:30.906Z,1015.71
2018-12-12T03:31:30.882Z,1015.71
2018-12-12T03:32:30.890Z,1015.70
2018-12-12T03:33:30.872Z,1015.69
2018-12-12T03:34:30.862Z,1015.92
2018-12-12T03:35:30.839Z,1015.85
2018-12-12T03:36:30.829Z,1015.76
2018-12-12T03:37:30.816Z,1015.78
2018-12-12T03:38:30.820Z,1015.80
2018-12-12T03:39:30.802Z,1015.89
2018-12-12T03:40:30.787Z,1015.96
2018-12-12T03:41:30.782Z,1016.01
2018-12-12T03:42:30.760Z,1016.00
2018-12-12T03:43:30.772Z,1016.00
2018-12-12T03:44:30.753Z,1015.97
2018-12-12T03:45:30.728Z,1015.89
2018-12-12T03:46:30.719Z,1015.93
2018-12-12T03:47:30.715Z,1015.95
2018-12-12T03:48:30.715Z,1015.94
2018-12-12T03:49:30.686Z,1016.06
2018-12-12T03:50:30.678Z,1016.00
2018-12-12T03:51:30.675Z,1016.08
2018-12-12T03:52:30.657Z,1016.05
2018-12-12T03:53:30.670Z,1016.07
2018-12-12T03:54:30.628Z,1015.99
2018-12-12T03:55:30.619Z,1015.99
2018-12-12T03:56:30.616Z,1016.01
2018-12-12T03:57:30.592Z,1016.02
2018-12-12T03:58:30.607Z,1016.06
2018-12-12T03:59:30.570Z,1016.04
2018-12-12T04:00:30.583Z,1015.99
2018-12-12T04:01:30.552Z,1016.10
2018-12-12T04:02:30.531Z,1016.10
2018-12-12T04:03:30.545Z,1016.09
2018-12-12T04:04:30.524Z,1016.09
2018-12-12T04:05:30.514Z,1016.30
2018-12-12T04:06:30.505Z,1016.31
2018-12-12T04:07:30.503Z,1016.28
2018-12-12T04:08:30.510Z,1016.39
2018-12-12T04:09:30.465Z,1016.27
2018-12-12T04:10:30.461Z,1016.29
2018-12-12T04:11:30.449Z,1016.36
2018-12-12T04:12:30.445Z,1016.30
2018-12-12T04:13:30.435Z,1016.38
2018-12-12T04:14:30.414Z,1016.45
2018-12-12T04:15:30.411Z,1016.39
2018-12-12T04:16:30.385Z,1016.30
2018-12-12T04:17:30.392Z,1016.32
2018-12-12T04:18:30.400Z,1016.46
2018-12-12T04:19:30.355Z,1016.40
2018-12-12T04:20:30.344Z,1016.43
2018-12-12T04:21:30.338Z,1016.40
2018-12-12T04:22:30.326Z,1016.48
2018-12-12T04:23:30.322Z,1016.41
2018-12-12T04:24:30.306Z,1016.42
2018-12-12T04:25:30.328Z,1016.44
2018-12-12T04:26:30.286Z,1016.39
2018-12-12T04:27:30.263Z,1016.38
2018-12-12T04:28:30.265Z,1016.44
2018-12-12T04:29:30.259Z,1016.36
2018-12-12T04:30:30.235Z,1016.43
2018-12-12T04:31:30.234Z,1016.45
2018-12-12T04:32:30.217Z,1016.38
2018-12-12T04:33:30.218Z,1016.42
2018-12-12T04:34:30.198Z,1016.42
2018-12-12T04:35:30.176Z,1016.42
2018-12-12T04:36:30.189Z,1016.57
2018-12-12T04:37:30.157Z,1016.38
2018-12-12T04:38:30.174Z,1016.42
2018-12-12T04:39:30.135Z,1016.39
2018-12-12T04:40:30.129Z,1016.57
2018-12-12T04:41:30.134Z,1016.62
2018-12-12T04:42:30.111Z,1016.57
2018-12-12T04:43:30.117Z,1016.51
2018-12-12T04:44:30.089Z,1016.39
2018-12-12T04:45:30.068Z,1016.56
2018-12-12T04:46:30.067Z,1016.51
2018-12-12T04:47:30.059Z,1016.50
2018-12-12T04:48:30.091Z,1016.54
2018-12-12T04:49:30.028Z,1016.49
2018-12-12T04:50:30.025Z,1016.58
2018-12-12T04:51:30.007Z,1016.53
2018-12-12T04:52:30.002Z,1016.53
2018-12-12T04:53:29.990Z,1016.54
2018-12-12T04:54:29.993Z,1016.54
2018-12-12T04:55:29.963Z,1016.57
2018-12-12T04:56:29.949Z,1016.60
2018-12-12T04:57:29.952Z,1016.61
2018-12-12T04:58:29.944Z,1016.60
2018-12-12T04:59:29.936Z,1016.54
2018-12-12T05:00:29.929Z,1016.62
2018-12-12T05:01:29.971Z,1016.62
2018-12-12T05:02:30.019Z,1016.67
2018-12-12T05:03:30.006Z,1016.51
2018-12-12T05:04:29.879Z,1016.57
2018-12-12T05:05:29.848Z,1016.62
2018-12-12T05:06:29.846Z,1016.68
2018-12-12T05:07:29.841Z,1016.66
2018-12-12T05:08:29.820Z,1016.60
2018-12-12T05:09:29.839Z,1016.57
2018-12-12T05:10:29.839Z,1016.56
2018-12-12T05:11:29.787Z,1016.69
2018-12-12T05:12:30.362Z,1016.69
2018-12-12T05:13:29.774Z,1016.61
2018-12-12T05:14:29.771Z,1016.65
2018-12-12T05:15:29.740Z,1016.73
2018-12-12T05:16:29.749Z,1016.80
2018-12-12T05:17:29.722Z,1016.64
2018-12-12T05:18:29.743Z,1016.69
2018-12-12T05:19:29.721Z,1016.68
2018-12-12T05:20:29.689Z,1016.71
2018-12-12T05:21:29.677Z,1016.78
2018-12-12T05:22:29.675Z,1016.80
2018-12-12T05:23:29.659Z,1016.74
2018-12-12T05:24:29.664Z,1016.73
2018-12-12T05:25:29.633Z,1016.74
2018-12-12T05:26:29.625Z,1016.78
2018-12-12T05:27:29.609Z,1016.75
2018-12-12T05:28:29.604Z,1016.91
2018-12-12T05:29:29.596Z,1016.83
2018-12-12T05:30:29.589Z,1016.82
2018-12-12T05:31:29.569Z,1016.78
2018-12-12T05:32:29.566Z,1016.78
2018-12-12T05:33:29.546Z,1016.90
2018-12-12T05:34:29.578Z,1016.84
2018-12-12T05:35:29.530Z,1016.92
2018-12-12T05:36:29.514Z,1016.97
2018-12-12T05:37:29.507Z,1017.04
2018-12-12T05:38:29.502Z,1016.85
2018-12-12T05:39:29.498Z,1017.01
2018-12-12T05:40:29.501Z,1016.99
2018-12-12T05:41:29.469Z,1017.03
2018-12-12T05:42:29.446Z,1017.01
2018-12-12T05:43:29.442Z,1016.96
2018-12-12T05:44:29.427Z,1016.97
2018-12-12T05:45:29.442Z,1016.90
2018-12-12T05:46:29.458Z,1016.94
2018-12-12T05:47:29.402Z,1016.87
2018-12-12T05:48:29.380Z,1017.00
2018-12-12T05:49:29.382Z,1017.05
2018-12-12T05:50:29.369Z,1017.01
2018-12-12T05:51:29.352Z,1017.09
2018-12-12T05:52:29.354Z,1017.03
2018-12-12T05:53:29.345Z,1017.04
2018-12-12T05:54:29.318Z,1017.04
2018-12-12T05:55:29.338Z,1017.04
2018-12-12T05:56:29.300Z,1016.89
2018-12-12T05:57:29.290Z,1016.89
2018-12-12T05:58:29.282Z,1016.93
2018-12-12T05:59:29.265Z,1016.90
2018-12-12T06:00:29.276Z,1016.90
2018-12-12T06:01:29.265Z,1016.97
2018-12-12T06:02:29.238Z,1016.99
2018-12-12T06:03:29.230Z,1016.92
2018-12-12T06:04:29.227Z,1016.94
2018-12-12T06:05:29.221Z,1017.03
2018-12-12T06:06:29.200Z,1016.97
2018-12-12T06:07:29.214Z,1016.97
2018-12-12T06:08:29.168Z,1017.00
2018-12-12T06:09:29.166Z,1017.00
2018-12-12T06:10:29.167Z,1017.08
2018-12-12T06:11:29.261Z,1017.09
2018-12-12T06:12:29.124Z,1017.03
2018-12-12T06:13:29.115Z,1017.14
2018-12-12T06:14:29.100Z,1017.13
2018-12-12T06:15:29.118Z,1017.38
2018-12-12T06:16:29.086Z,1017.36
2018-12-12T06:17:29.078Z,1017.24
2018-12-12T06:18:29.061Z,1017.22
2018-12-12T06:19:29.052Z,1017.36
2018-12-12T06:20:29.046Z,1017.27
2018-12-12T06:21:29.042Z,1017.43
2018-12-12T06:22:29.020Z,1017.26
2018-12-12T06:23:29.024Z,1017.27
2018-12-12T06:24:29.005Z,1017.24
2018-12-12T06:25:28.980Z,1017.28
2018-12-12T06:26:28.983Z,1017.27
2018-12-12T06:27:28.956Z,1017.27
2018-12-12T06:28:29.037Z,1017.30
2018-12-12T06:29:28.941Z,1017.28
2018-12-12T06:30:28.957Z,1017.25
2018-12-12T06:31:28.951Z,1017.30
2018-12-12T06:32:28.912Z,1017.30
2018-12-12T06:33:28.933Z,1017.28
2018-12-12T06:34:28.901Z,1017.31
2018-12-12T06:35:28.867Z,1017.30
2018-12-12T06:36:28.872Z,1017.46
2018-12-12T06:37:28.847Z,1017.46
2018-12-12T06:38:28.843Z,1017.36
2018-12-12T06:39:28.829Z,1017.38
2018-12-12T06:40:28.827Z,1017.40
2018-12-12T06:41:28.831Z,1017.54
2018-12-12T06:42:28.799Z,1017.43
2018-12-12T06:43:28.789Z,1017.48
2018-12-12T06:44:28.787Z,1017.39
2018-12-12T06:45:28.772Z,1017.47
2018-12-12T06:46:28.767Z,1017.51
2018-12-12T06:47:28.751Z,1017.56
2018-12-12T06:48:28.735Z,1017.53
2018-12-12T06:49:28.748Z,1017.54
2018-12-12T06:50:28.717Z,1017.54
2018-12-12T06:51:28.744Z,1017.54
2018-12-12T06:52:28.679Z,1017.56
2018-12-12T06:53:28.676Z,1017.64
2018-12-12T06:54:28.663Z,1017.62
2018-12-12T06:55:28.663Z,1017.70
2018-12-12T06:56:28.678Z,1017.76
2018-12-12T06:57:28.631Z,1017.67
2018-12-12T06:58:28.621Z,1017.70
2018-12-12T06:59:28.621Z,1017.75
2018-12-12T07:00:28.601Z,1017.68
2018-12-12T07:01:28.604Z,1017.69
2018-12-12T07:02:28.625Z,1017.64
2018-12-12T07:03:28.566Z,1017.62
2018-12-12T07:04:28.558Z,1017.80
2018-12-12T07:05:28.556Z,1017.82
2018-12-12T07:06:28.548Z,1017.71
2018-12-12T07:07:28.528Z,1017.75
2018-12-12T07:08:28.511Z,1017.77
2018-12-12T07:09:28.512Z,1017.78
2018-12-12T07:10:28.490Z,1017.80
2018-12-12T07:11:28.488Z,1017.83
2018-12-12T07:12:28.492Z,1017.86
2018-12-12T07:13:28.467Z,1017.79
2018-12-12T07:14:28.447Z,1017.84
2018-12-12T07:15:28.424Z,1017.81
2018-12-12T07:16:28.451Z,1017.84
2018-12-12T07:17:28.487Z,1017.84
2018-12-12T07:18:28.400Z,1017.85
2018-12-12T07:19:28.394Z,1017.79
2018-12-12T07:20:28.391Z,1017.90
2018-12-12T07:21:28.366Z,1017.92
2018-12-12T07:22:28.381Z,1017.86
2018-12-12T07:23:28.361Z,1017.90
2018-12-12T07:24:28.338Z,1017.94
2018-12-12T07:25:28.346Z,1017.88
2018-12-12T07:26:28.308Z,1017.89
2018-12-12T07:27:28.340Z,1017.93
2018-12-12T07:28:28.301Z,1017.98
2018-12-12T07:29:28.304Z,1017.99
2018-12-12T07:30:28.276Z,1017.99
2018-12-12T07:31:28.261Z,1018.03
2018-12-12T07:32:28.261Z,1018.01
2018-12-12T07:33:28.285Z,1017.98
2018-12-12T07:34:28.258Z,1018.07
2018-12-12T07:35:28.221Z,1018.00
2018-12-12T07:36:28.214Z,1018.04
2018-12-12T07:37:28.235Z,1018.02
2018-12-12T07:38:28.203Z,1018.08
2018-12-12T07:39:28.175Z,1018.00
2018-12-12T07:40:28.264Z,1018.02
2018-12-12T07:41:28.149Z,1018.19
2018-12-12T07:42:28.145Z,1018.11
2018-12-12T07:43:28.540Z,1018.15
2018-12-12T07:44:28.124Z,1018.15
2018-12-12T07:45:28.104Z,1018.11
2018-12-12T07:46:28.102Z,1018.14
2018-12-12T07:47:28.091Z,1018.15
2018-12-12T07:48:28.092Z,1018.10
2018-12-12T07:49:28.061Z,1018.12
2018-12-12T07:50:28.055Z,1018.25
2018-12-12T07:51:28.044Z,1018.23
2018-12-12T07:52:28.157Z,1018.09
2018-12-12T07:53:28.057Z,1018.32
2018-12-12T07:54:28.001Z,1018.32
2018-12-12T07:55:27.993Z,1018.23
2018-12-12T07:56:27.985Z,1018.30
2018-12-12T07:57:27.988Z,1018.26
2018-12-12T07:58:27.986Z,1018.22
2018-12-12T07:59:27.966Z,1018.20
2018-12-12T08:00:27.953Z,1018.34
2018-12-12T08:01:27.935Z,1018.21
2018-12-12T08:02:27.916Z,1018.40
2018-12-12T08:03:27.921Z,1018.42
2018-12-12T08:04:27.918Z,1018.40
2018-12-12T08:05:27.885Z,1018.37
2018-12-12T08:06:27.884Z,1018.39
2018-12-12T08:07:27.870Z,1018.41
2018-12-12T08:08:27.891Z,1018.36
2018-12-12T08:09:27.855Z,1018.31
2018-12-12T08:10:27.842Z,1018.38
2018-12-12T08:11:27.823Z,1018.33
2018-12-12T08:12:27.825Z,1018.31
2018-12-12T08:13:27.826Z,1018.28
2018-12-12T08:14:27.795Z,1018.43
2018-12-12T08:15:27.779Z,1018.37
2018-12-12T08:16:27.775Z,1018.44
2018-12-12T08:17:27.775Z,1018.43
2018-12-12T08:18:27.764Z,1018.33
2018-12-12T08:19:27.736Z,1018.45
2018-12-12T08:20:27.724Z,1018.49
2018-12-12T08:21:27.714Z,1018.41
2018-12-12T08:22:27.701Z,1018.40
2018-12-12T08:23:27.704Z,1018.50
2018-12-12T08:24:27.703Z,1018.54
2018-12-12T08:25:27.682Z,1018.40
2018-12-12T08:26:27.660Z,1018.42
2018-12-12T08:27:27.662Z,1018.42
2018-12-12T08:28:27.664Z,1018.36
2018-12-12T08:29:27.629Z,1018.50
2018-12-12T08:30:27.617Z,1018.50
2018-12-12T08:31:27.626Z,1018.37
2018-12-12T08:32:27.597Z,1018.43
2018-12-12T08:33:27.609Z,1018.39
2018-12-12T08:34:27.573Z,1018.35
2018-12-12T08:35:27.585Z,1018.38
2018-12-12T08:36:27.566Z,1018.32
2018-12-12T08:37:27.596Z,1018.38
2018-12-12T08:38:27.562Z,1018.30
2018-12-12T08:39:27.538Z,1018.33
2018-12-12T08:40:27.506Z,1018.37
2018-12-12T08:41:27.506Z,1018.33
2018-12-12T08:42:27.484Z,1018.39
2018-12-12T08:43:27.518Z,1018.57
2018-12-12T08:44:27.488Z,1018.45
2018-12-12T08:45:27.458Z,1018.45
2018-12-12T08:46:27.450Z,1018.43
2018-12-12T08:47:27.439Z,1018.50
2018-12-12T08:48:27.453Z,1018.60
2018-12-12T08:49:27.421Z,1018.57
2018-12-12T08:50:27.403Z,1018.67
2018-12-12T08:51:27.392Z,1018.60
2018-12-12T08:52:27.367Z,1018.49
2018-12-12T08:53:27.373Z,1018.53
2018-12-12T08:54:27.364Z,1018.53
2018-12-12T08:55:27.348Z,1018.54
2018-12-12T08:56:27.345Z,1018.45
2018-12-12T08:57:27.327Z,1018.56
2018-12-12T08:58:27.328Z,1018.57
2018-12-12T08:59:27.319Z,1018.58
2018-12-12T09:00:27.301Z,1018.60
2018-12-12T09:01:27.287Z,1018.61
2018-12-12T09:02:27.271Z,1018.59
2018-12-12T09:03:27.273Z,1018.59
2018-12-12T09:04:27.272Z,1018.64
2018-12-12T09:05:27.246Z,1018.61
2018-12-12T09:06:27.245Z,1018.60
2018-12-12T09:07:27.205Z,1018.64
2018-12-12T09:08:27.217Z,1018.68
2018-12-12T09:09:27.260Z,1018.65
2018-12-12T09:10:27.199Z,1018.70
2018-12-12T09:11:27.177Z,1018.69
2018-12-12T09:12:27.162Z,1018.74
2018-12-12T09:13:28.585Z,1018.71
2018-12-12T09:14:27.157Z,1018.66
2018-12-12T09:15:27.121Z,1018.73
2018-12-12T09:16:27.115Z,1018.72
2018-12-12T09:17:27.121Z,1018.68
2018-12-12T09:18:27.101Z,1018.65
2018-12-12T09:19:27.107Z,1018.70
2018-12-12T09:20:27.074Z,1018.75
2018-12-12T09:21:27.062Z,1018.74
2018-12-12T09:22:27.055Z,1018.76
2018-12-12T09:23:27.041Z,1018.78
2018-12-12T09:24:27.052Z,1018.76
2018-12-12T09:25:27.010Z,1018.81
2018-12-12T09:26:27.007Z,1018.72
2018-12-12T09:27:26.994Z,1018.73
2018-12-12T09:28:26.990Z,1018.74
2018-12-12T09:29:26.985Z,1018.79
2018-12-12T09:30:26.970Z,1018.75
2018-12-12T09:31:26.943Z,1018.77
2018-12-12T09:32:26.943Z,1018.77
2018-12-12T09:33:26.927Z,1018.67
2018-12-12T09:34:26.939Z,1018.69
2018-12-12T09:35:26.912Z,1018.78
2018-12-12T09:36:26.960Z,1018.73
2018-12-12T09:37:26.929Z,1018.75
2018-12-12T09:38:26.914Z,1018.88
2018-12-12T09:39:26.947Z,1018.90
2018-12-12T09:40:26.861Z,1018.83
2018-12-12T09:41:26.845Z,1018.92
2018-12-12T09:42:26.836Z,1018.90
2018-12-12T09:43:26.820Z,1018.77
2018-12-12T09:44:26.835Z,1018.93
2018-12-12T09:45:26.805Z,1018.72
2018-12-12T09:46:26.790Z,1018.96
2018-12-12T09:47:26.794Z,1018.77
2018-12-12T09:48:26.782Z,1018.77
2018-12-12T09:49:26.755Z,1018.88
2018-12-12T09:50:26.814Z,1018.84
2018-12-12T09:51:26.735Z,1018.76
2018-12-12T09:52:26.736Z,1018.73
2018-12-12T09:53:26.715Z,1018.76
2018-12-12T09:54:26.703Z,1018.83
2018-12-12T09:55:26.720Z,1018.83
2018-12-12T09:56:26.690Z,1018.79
2018-12-12T09:57:26.675Z,1019.02
2018-12-12T09:58:26.656Z,1018.87
2018-12-12T09:59:26.652Z,1018.87
2018-12-12T10:00:26.654Z,1018.90
2018-12-12T10:01:26.624Z,1018.92
2018-12-12T10:02:26.626Z,1018.86
2018-12-12T10:03:31.101Z,1019.03
2018-12-12T10:04:26.595Z,1018.91
2018-12-12T10:05:26.610Z,1018.96
2018-12-12T10:06:26.574Z,1018.93
2018-12-12T10:07:26.557Z,1018.97
2018-12-12T10:08:26.546Z,1019.10
2018-12-12T10:09:26.542Z,1019.02
2018-12-12T10:10:26.540Z,1019.04
2018-12-12T10:11:26.515Z,1018.98
2018-12-12T10:12:26.503Z,1018.98
2018-12-12T10:13:26.492Z,1019.02
2018-12-12T10:14:26.500Z,1019.04
2018-12-12T10:15:26.491Z,1018.98
2018-12-12T10:16:26.467Z,1018.83
2018-12-12T10:17:26.448Z,1018.86
2018-12-12T10:18:26.437Z,1018.86
2018-12-12T10:19:26.426Z,1018.80
2018-12-12T10:20:26.426Z,1018.87
2018-12-12T10:21:26.402Z,1018.80
2018-12-12T10:22:26.386Z,1018.82
2018-12-12T10:23:26.388Z,1018.80
2018-12-12T10:24:26.372Z,1018.82
2018-12-12T10:25:26.373Z,1018.84
2018-12-12T10:26:26.357Z,1018.94
2018-12-12T10:27:26.343Z,1018.92
2018-12-12T10:28:26.333Z,1018.93
2018-12-12T10:29:26.323Z,1018.82
2018-12-12T10:30:26.328Z,1018.84
2018-12-12T10:31:26.311Z,1018.89
2018-12-12T10:32:26.298Z,1018.77
2018-12-12T10:33:26.277Z,1018.85
2018-12-12T10:34:26.264Z,1018.93
2018-12-12T10:35:26.262Z,1018.95
2018-12-12T10:36:26.266Z,1019.03
2018-12-12T10:37:26.242Z,1018.99
2018-12-12T10:38:26.243Z,1018.96
2018-12-12T10:39:26.211Z,1019.02
2018-12-12T10:40:26.194Z,1018.86
2018-12-12T10:41:26.208Z,1018.87
2018-12-12T10:42:26.175Z,1018.85
2018-12-12T10:43:26.180Z,1018.92
2018-12-12T10:44:26.232Z,1019.07
2018-12-12T10:45:26.154Z,1019.01
2018-12-12T10:46:26.573Z,1018.99
2018-12-12T10:47:26.148Z,1018.91
2018-12-12T10:48:26.121Z,1018.90
2018-12-12T10:49:26.126Z,1018.98
2018-12-12T10:50:26.083Z,1019.08
2018-12-12T10:51:26.096Z,1019.06
2018-12-12T10:52:26.076Z,1019.02
2018-12-12T10:53:26.066Z,1019.00
2018-12-12T10:54:26.054Z,1019.06
2018-12-12T10:55:26.030Z,1018.86
2018-12-12T10:56:26.056Z,1018.96
2018-12-12T10:57:26.025Z,1018.87
2018-12-12T10:58:26.006Z,1018.82
2018-12-12T10:59:25.995Z,1018.91
2018-12-12T11:00:25.976Z,1018.92
2018-12-12T11:01:25.967Z,1018.99
2018-12-12T11:02:25.976Z,1018.92
2018-12-12T11:03:25.955Z,1019.06
2018-12-12T11:04:25.940Z,1018.92
2018-12-12T11:05:25.927Z,1018.96
2018-12-12T11:06:25.914Z,1018.97
2018-12-12T11:07:25.936Z,1019.05
2018-12-12T11:08:25.896Z,1018.98
2018-12-12T11:09:25.896Z,1018.86
2018-12-12T11:10:25.870Z,1018.95
2018-12-12T11:11:25.861Z,1018.89
2018-12-12T11:12:25.865Z,1018.93
2018-12-12T11:13:25.836Z,1018.95
2018-12-12T11:14:25.826Z,1018.88
2018-12-12T11:15:25.830Z,1018.90
2018-12-12T11:16:25.809Z,1018.86
2018-12-12T11:17:25.810Z,1018.91
2018-12-12T11:18:25.850Z,1018.93
2018-12-12T11:19:25.781Z,1019.03
2018-12-12T11:20:25.761Z,1019.09
2018-12-12T11:21:25.765Z,1019.04
2018-12-12T11:22:25.778Z,1019.08
2018-12-12T11:23:25.748Z,1018.95
2018-12-12T11:24:25.726Z,1019.00
2018-12-12T11:25:25.716Z,1018.94
2018-12-12T11:26:25.705Z,1018.93
2018-12-12T11:27:25.721Z,1018.96
2018-12-12T11:28:25.683Z,1018.90
2018-12-12T11:29:25.669Z,1018.90
2018-12-12T11:30:25.661Z,1018.95
2018-12-12T11:31:25.651Z,1018.97
2018-12-12T11:32:25.654Z,1018.95
2018-12-12T11:33:25.631Z,1018.91
2018-12-12T11:34:25.654Z,1019.04
2018-12-12T11:35:25.595Z,1019.08
2018-12-12T11:36:25.594Z,1018.88
2018-12-12T11:37:25.593Z,1018.91
2018-12-12T11:38:25.571Z,1018.93
2018-12-12T11:39:25.559Z,1019.06
2018-12-12T11:40:25.547Z,1019.02
2018-12-12T11:41:25.559Z,1018.98
2018-12-12T11:42:25.539Z,1018.90
2018-12-12T11:43:25.529Z,1019.04
2018-12-12T11:44:25.497Z,1018.95
2018-12-12T11:45:25.502Z,1018.87
2018-12-12T11:46:25.477Z,1018.87
2018-12-12T11:47:25.512Z,1018.92
2018-12-12T11:48:25.461Z,1018.85
2018-12-12T11:49:28.462Z,1018.90
2018-12-12T11:50:25.443Z,1018.97
2018-12-12T11:51:25.431Z,1019.04
2018-12-12T11:52:25.433Z,1019.08
2018-12-12T11:53:25.411Z,1018.86
2018-12-12T11:54:25.403Z,1018.93
2018-12-12T11:55:25.383Z,1018.88
2018-12-12T11:56:25.375Z,1019.00
2018-12-12T11:57:25.391Z,1019.04
2018-12-12T11:58:25.346Z,1019.01
2018-12-12T11:59:25.338Z,1019.01
2018-12-12T12:00:25.338Z,1018.88
2018-12-12T12:01:25.317Z,1018.93
2018-12-12T12:02:25.337Z,1018.92
2018-12-12T12:03:25.318Z,1018.93
2018-12-12T12:04:25.288Z,1018.94
2018-12-12T12:05:25.274Z,1018.90